Time;durP1;ratioP1;P1;durP2;ratioP2;P2;SDS_P1;SDS_P2;PMS_P1;PMS_P2;Temp;Humidity;BMP_temperature;BMP_pressure;BME280_temperature;BME280_humidity;BME280_pressure;Samples;Min_cycle;Max_cycle;Signal;HPM_P1;HPM_P2
2021/06/01 00:02:44;;;;;;;6.83;4.00;;;;;;;9.24;67.39;96494.72;4850878;29;21076;-85
2021/06/01 00:06:40;;;;;;;58.22;30.17;;;;;;;9.26;67.49;96497.22;4884036;29;20131;-84
2021/06/01 00:09:45;;;;;;;10.03;4.80;;;;;;;9.13;67.96;96498.34;4847459;29;20101;-84
2021/06/01 00:16:48;;;;;;;7.73;3.90;;;;;;;8.98;68.29;96490.09;4990219;28;20103;-84
2021/06/01 00:20:02;;;;;;;6.10;3.73;;;;;;;8.96;68.25;96492.06;4999947;28;20045;-84
2021/06/01 00:23:24;;;;;;;5.07;3.20;;;;;;;9.02;68.38;96492.44;5005906;28;20045;-84
2021/06/01 00:27:03;;;;;;;6.57;3.90;;;;;;;9.04;68.09;96499.19;5000262;28;20125;-84
2021/06/01 00:30:03;;;;;;;5.90;3.60;;;;;;;8.96;67.75;96505.16;5011657;28;20068;-84
2021/06/01 00:36:45;;;;;;;8.17;3.20;;;;;;;8.91;68.17;96491.63;4994920;28;20029;-84
2021/06/01 00:40:09;;;;;;;6.13;3.40;;;;;;;8.86;68.24;96495.69;4983933;28;20070;-84
2021/06/01 00:43:15;;;;;;;6.63;3.40;;;;;;;8.92;67.90;96490.69;5009615;28;20053;-84
2021/06/01 00:50:27;;;;;;;5.87;3.60;;;;;;;8.82;68.10;96503.00;4988883;28;20044;-84
2021/06/01 00:53:53;;;;;;;6.00;3.67;;;;;;;8.75;68.31;96496.66;5015004;28;20068;-84
2021/06/01 00:57:07;;;;;;;8.00;3.43;;;;;;;8.74;68.17;96493.19;5007701;28;20041;-84
2021/06/01 01:00:11;;;;;;;5.27;3.13;;;;;;;8.72;68.13;96489.91;4980492;28;20045;-85
2021/06/01 01:08:07;;;;;;;5.83;3.63;;;;;;;8.68;68.55;96485.91;4997560;28;20568;-85
2021/06/01 01:12:46;;;;;;;5.97;3.50;;;;;;;8.61;68.45;96484.00;4932350;29;20140;-84
2021/06/01 01:16:31;;;;;;;8.30;3.60;;;;;;;8.56;68.56;96487.03;4866385;29;20286;-84
2021/06/01 01:24:28;;;;;;;8.13;3.77;;;;;;;8.59;68.11;96478.91;4807001;29;20059;-84
2021/06/01 01:28:20;;;;;;;7.28;3.80;;;;;;;8.51;68.63;96481.38;4886748;29;20072;-84
2021/06/01 01:31:48;;;;;;;5.73;3.77;;;;;;;8.48;69.04;96479.03;4893601;29;20063;-84
2021/06/01 01:39:48;;;;;;;5.70;3.70;;;;;;;8.37;69.70;96474.75;4962760;28;20042;-84
2021/06/01 01:51:18;;;;;;;7.27;4.10;;;;;;;8.27;69.60;96480.00;4988286;28;20041;-84
2021/06/01 01:55:03;;;;;;;7.27;4.10;;;;;;;8.22;70.13;96478.78;5007229;28;20165;-84
2021/06/01 02:06:48;;;;;;;6.30;4.30;;;;;;;7.98;71.28;96484.41;4968399;28;20504;-84
2021/06/01 02:10:42;;;;;;;7.77;4.10;;;;;;;7.90;71.82;96479.84;4987664;28;20089;-84
2021/06/01 02:14:11;;;;;;;7.37;4.13;;;;;;;7.92;71.49;96483.19;4938527;29;20258;-84
2021/06/01 02:26:01;;;;;;;7.80;4.77;;;;;;;7.72;72.36;96479.69;4956530;28;20043;-84
2021/06/01 02:30:01;;;;;;;9.23;4.83;;;;;;;7.64;72.99;96482.16;4905667;29;20565;-84
2021/06/01 02:45:12;;;;;;;8.32;4.38;;;;;;;7.67;72.61;96475.81;4866604;29;20151;-84
2021/06/01 02:48:47;;;;;;;7.33;5.07;;;;;;;7.72;71.98;96481.50;4808991;29;20432;-84
2021/06/01 02:51:54;;;;;;;6.73;3.87;;;;;;;7.68;72.09;96477.47;4826440;29;20137;-84
2021/06/01 02:56:31;;;;;;;11.57;4.67;;;;;;;7.74;72.00;96477.75;4870938;29;20044;-84
2021/06/01 03:00:08;;;;;;;6.85;4.35;;;;;;;7.60;72.57;96478.16;4767313;30;20632;-84
2021/06/01 03:07:44;;;;;;;8.00;4.70;;;;;;;7.52;73.12;96470.16;4775337;30;20047;-83
2021/06/01 03:11:34;;;;;;;7.27;4.50;;;;;;;7.54;72.95;96473.44;4763363;30;20089;-84
2021/06/01 03:15:28;;;;;;;6.93;4.57;;;;;;;7.55;72.65;96473.34;4858446;29;20215;-84
2021/06/01 03:27:48;;;;;;;7.07;4.60;;;;;;;7.37;74.03;96479.34;4852376;29;20065;-84
2021/06/01 03:31:21;;;;;;;8.67;5.50;;;;;;;7.34;74.16;96472.56;4855734;29;20040;-84
2021/06/01 03:38:50;;;;;;;9.47;5.10;;;;;;;7.33;73.87;96470.94;4844050;29;20045;-85
2021/06/01 04:01:41;;;;;;;22.63;17.93;;;;;;;7.49;74.23;96473.03;4894309;29;20051;-85
2021/06/01 04:05:49;;;;;;;9.98;7.13;;;;;;;7.55;73.62;96482.97;4848883;29;20053;-84
2021/06/01 04:13:50;;;;;;;7.90;5.25;;;;;;;7.64;73.65;96482.16;4801979;29;20050;-84
2021/06/01 04:17:58;;;;;;;10.90;5.10;;;;;;;7.63;73.79;96483.13;4759229;30;20540;-84
2021/06/01 04:21:39;;;;;;;8.17;4.70;;;;;;;7.75;73.32;96483.84;4744224;30;20117;-84
2021/06/01 04:32:16;;;;;;;9.10;4.90;;;;;;;8.17;71.93;96473.09;4947662;29;20428;-84
2021/06/01 04:35:25;;;;;;;7.53;5.50;;;;;;;8.26;70.60;96475.72;5047121;28;20041;-84
2021/06/01 04:38:16;;;;;;;9.77;5.33;;;;;;;8.37;71.01;96474.75;5079813;28;20051;-84
2021/06/01 04:41:02;;;;;;;9.43;5.00;;;;;;;8.54;70.13;96475.03;5102528;28;20123;-82
2021/06/01 04:43:49;;;;;;;7.87;4.73;;;;;;;8.62;70.50;96477.81;5090904;28;20055;-84
2021/06/01 04:46:42;;;;;;;6.67;4.73;;;;;;;8.74;69.53;96480.09;5078846;28;20222;-84
2021/06/01 04:49:17;;;;;;;7.75;5.05;;;;;;;8.86;69.50;96480.75;5078844;28;20127;-84
2021/06/01 04:55:56;;;;;;;7.13;4.33;;;;;;;9.12;68.79;96475.72;5024759;28;20091;-84
2021/06/01 04:58:25;;;;;;;6.37;3.90;;;;;;;9.23;68.43;96471.25;5018065;28;20066;-84
2021/06/01 05:01:03;;;;;;;9.82;5.05;;;;;;;9.26;68.07;96478.84;5083890;28;20067;-84
2021/06/01 05:03:41;;;;;;;7.27;4.67;;;;;;;9.37;67.61;96474.22;5099830;28;20052;-84
2021/06/01 05:06:09;;;;;;;7.10;4.97;;;;;;;9.45;67.88;96470.84;5047600;28;20033;-84
2021/06/01 05:08:43;;;;;;;9.83;5.70;;;;;;;9.57;67.17;96467.06;5071604;28;20054;-84
2021/06/01 05:11:23;;;;;;;7.88;5.00;;;;;;;9.55;68.07;96471.63;5084025;28;20044;-84
2021/06/01 05:13:53;;;;;;;8.83;6.17;;;;;;;9.79;67.05;96467.59;5078334;28;20032;-84
2021/06/01 05:16:29;;;;;;;10.60;5.10;;;;;;;9.99;66.31;96468.28;5086887;28;20097;-85
2021/06/01 05:19:48;;;;;;;7.43;4.53;;;;;;;9.98;67.00;96470.09;5054003;28;20054;-85
2021/06/01 05:22:59;;;;;;;7.43;4.17;;;;;;;10.55;64.75;96456.66;5023980;28;20048;-84
2021/06/01 05:26:12;;;;;;;7.80;4.07;;;;;;;10.60;65.05;96463.09;5043247;28;20035;-84
2021/06/01 05:29:40;;;;;;;7.38;4.90;;;;;;;11.01;63.90;96460.72;5062086;28;20038;-85
2021/06/01 05:37:18;;;;;;;7.33;4.40;;;;;;;10.93;63.32;96460.69;5099773;28;20108;-85
2021/06/01 05:44:47;;;;;;;6.87;4.33;;;;;;;11.59;61.96;96440.72;4986679;28;20131;-85
2021/06/01 05:48:50;;;;;;;7.63;3.90;;;;;;;12.14;60.33;96434.09;4950465;28;20061;-85
2021/06/01 06:03:55;;;;;;;8.73;4.57;;;;;;;13.27;57.12;96434.94;4995157;28;20049;-85
2021/06/01 06:07:43;;;;;;;8.17;4.23;;;;;;;14.18;54.48;96433.44;4951997;28;20046;-85
2021/06/01 07:00:16;;;;;;;8.07;3.57;;;;;;;18.56;45.09;96426.84;5101361;28;20464;-87
2021/06/01 07:02:42;;;;;;;8.10;4.23;;;;;;;18.48;44.82;96424.41;5070018;28;20038;-87
2021/06/01 07:05:11;;;;;;;5.15;3.08;;;;;;;18.99;44.36;96415.78;5069551;28;20457;-87
2021/06/01 07:07:38;;;;;;;6.45;2.88;;;;;;;19.24;43.76;96412.44;5075057;28;20408;-86
2021/06/01 07:10:05;;;;;;;5.20;2.90;;;;;;;18.80;44.59;96405.97;5072101;28;20024;-87
2021/06/01 07:12:31;;;;;;;6.15;3.38;;;;;;;20.48;41.05;96403.22;5063371;28;20115;-87
2021/06/01 07:15:15;;;;;;;5.10;2.80;;;;;;;19.53;40.42;96406.63;5063024;28;20124;-87
2021/06/01 07:17:45;;;;;;;5.05;2.47;;;;;;;20.91;39.47;96397.94;5059875;28;20047;-87
2021/06/01 07:20:13;;;;;;;6.20;3.22;;;;;;;19.34;41.60;96412.03;5051078;28;20119;-87
2021/06/01 07:22:39;;;;;;;5.07;2.08;;;;;;;18.72;40.82;96403.53;5058242;28;20037;-87
2021/06/01 07:25:06;;;;;;;3.15;1.83;;;;;;;19.39;37.69;96407.69;5067801;28;20032;-87
2021/06/01 07:27:32;;;;;;;5.47;2.17;;;;;;;19.65;37.54;96405.97;5083899;28;20432;-88
2021/06/01 07:29:58;;;;;;;4.75;2.05;;;;;;;19.42;37.14;96403.81;5066081;28;20069;-85
2021/06/01 07:32:24;;;;;;;3.33;2.00;;;;;;;19.76;35.99;96400.00;5072586;28;20098;-84
2021/06/01 07:34:50;;;;;;;4.45;2.20;;;;;;;19.91;37.27;96397.84;5067973;28;20044;-84
2021/06/01 07:37:16;;;;;;;4.22;2.40;;;;;;;19.93;35.78;96398.47;5055736;28;20028;-86
2021/06/01 07:39:43;;;;;;;3.08;2.00;;;;;;;20.36;35.22;96392.44;5064195;28;20126;-86
2021/06/01 07:42:10;;;;;;;3.85;1.75;;;;;;;20.62;34.32;96393.28;5068501;28;20027;-86
2021/06/01 07:44:35;;;;;;;4.85;2.03;;;;;;;19.86;34.24;96392.34;5068448;28;20021;-85
2021/06/01 07:47:02;;;;;;;4.82;2.30;;;;;;;20.07;33.85;96391.19;5071921;28;20039;-86
2021/06/01 07:49:28;;;;;;;6.30;2.00;;;;;;;21.32;32.40;96384.97;5084195;28;20474;-85
2021/06/01 07:51:54;;;;;;;5.55;2.05;;;;;;;20.84;32.18;96386.50;5068386;28;20035;-85
2021/06/01 07:54:20;;;;;;;3.45;2.20;;;;;;;20.43;31.92;96400.41;5062543;28;20496;-84
2021/06/01 07:56:46;;;;;;;3.45;1.80;;;;;;;20.02;32.43;96399.03;5070084;28;20031;-85
2021/06/01 07:59:12;;;;;;;3.15;1.90;;;;;;;20.73;32.24;96397.94;5070278;28;20130;-85
2021/06/01 08:01:39;;;;;;;3.80;2.15;;;;;;;21.05;30.54;96387.13;5054129;28;20028;-85
2021/06/01 08:04:21;;;;;;;5.63;2.25;;;;;;;21.29;31.34;96391.59;5060654;28;20026;-85
2021/06/01 08:06:47;;;;;;;3.67;1.95;;;;;;;20.94;32.49;96381.47;5074489;28;20032;-84
2021/06/01 08:09:12;;;;;;;4.95;1.90;;;;;;;21.11;32.44;96383.56;5067953;28;20051;-85
2021/06/01 08:11:38;;;;;;;3.35;1.70;;;;;;;22.51;30.45;96375.38;5051642;28;20036;-85
2021/06/01 08:14:04;;;;;;;7.18;2.10;;;;;;;22.42;29.87;96379.44;5061396;28;20056;-84
2021/06/01 08:16:33;;;;;;;3.67;2.00;;;;;;;22.23;31.00;96378.72;5072368;28;20039;-85
2021/06/01 08:19:13;;;;;;;5.53;2.15;;;;;;;22.99;29.54;96373.56;5073366;28;20052;-84
2021/06/01 08:24:08;;;;;;;4.88;2.20;;;;;;;21.64;31.46;96380.31;5080808;28;20023;-84
2021/06/01 08:26:34;;;;;;;2.92;1.70;;;;;;;20.07;31.89;96388.53;5061251;28;20032;-85
2021/06/01 08:29:00;;;;;;;5.00;2.33;;;;;;;21.70;30.52;96374.06;5065181;28;20039;-83
2021/06/01 08:31:26;;;;;;;3.63;2.08;;;;;;;21.93;31.08;96384.06;5062595;28;20035;-82
2021/06/01 08:33:59;;;;;;;5.45;2.25;;;;;;;22.08;28.78;96375.59;5071296;28;20661;-83
2021/06/01 08:36:25;;;;;;;;;;;;;;;21.64;29.76;96385.66;5069173;28;20031;-83
2021/06/01 08:38:52;;;;;;;4.30;1.80;;;;;;;21.36;30.50;96383.53;5077852;28;19908;-83
2021/06/01 08:41:17;;;;;;;4.47;1.90;;;;;;;21.76;28.00;96378.50;5061023;28;20036;-82
2021/06/01 08:43:44;;;;;;;5.55;1.85;;;;;;;21.00;29.95;96377.09;5065145;28;20038;-83
2021/06/01 08:46:10;;;;;;;3.95;2.00;;;;;;;21.64;30.30;96370.44;5076611;28;20035;-82
2021/06/01 08:48:37;;;;;;;4.10;1.90;;;;;;;21.34;29.33;96383.75;5059012;28;20020;-83
2021/06/01 08:51:06;;;;;;;4.57;2.03;;;;;;;22.97;28.02;96367.59;5062518;28;20040;-83
2021/06/01 08:53:34;;;;;;;5.10;1.80;;;;;;;21.54;29.82;96369.34;5062008;28;20023;-83
2021/06/01 08:56:00;;;;;;;4.50;2.08;;;;;;;22.82;29.10;96376.91;5058022;28;20038;-83
2021/06/01 08:58:25;;;;;;;3.30;2.20;;;;;;;22.81;28.57;96375.28;5061813;28;20036;-83
2021/06/01 09:00:51;;;;;;;3.10;1.92;;;;;;;22.04;28.77;96369.06;5063472;28;20070;-83
2021/06/01 09:03:26;;;;;;;4.30;2.00;;;;;;;21.62;29.70;96374.34;5074530;28;20146;-83
2021/06/01 09:08:56;;;;;;;5.55;2.60;;;;;;;21.22;31.37;96369.44;5077135;28;20114;-83
2021/06/01 09:22:32;;;;;;;4.25;2.15;;;;;;;22.89;29.26;96354.53;5076592;28;20035;-85
2021/06/01 09:25:18;;;;;;;3.85;2.72;;;;;;;22.47;30.35;96362.69;5079300;28;20034;-85
2021/06/01 09:27:45;;;;;;;5.10;2.10;;;;;;;22.43;30.93;96351.59;5057853;28;20067;-85
2021/06/01 09:30:32;;;;;;;4.95;2.20;;;;;;;23.49;29.39;96348.84;5080027;28;20127;-85
2021/06/01 09:32:58;;;;;;;5.50;2.47;;;;;;;22.75;31.34;96354.75;5066112;28;20459;-84
2021/06/01 09:35:53;;;;;;;4.03;2.33;;;;;;;23.65;28.83;96344.63;5062314;28;20038;-85
2021/06/01 09:38:25;;;;;;;6.22;2.15;;;;;;;23.47;29.59;96345.59;5076327;28;20052;-84
2021/06/01 09:41:05;;;;;;;5.15;2.58;;;;;;;22.86;30.57;96344.25;5062541;28;20052;-84
2021/06/01 09:43:33;;;;;;;6.50;2.50;;;;;;;22.14;31.10;96347.91;5063111;28;20024;-84
2021/06/01 09:46:19;;;;;;;5.10;2.30;;;;;;;23.73;29.99;96339.69;5066969;28;20019;-84
2021/06/01 09:48:45;;;;;;;4.80;2.25;;;;;;;22.86;30.57;96344.25;5053084;28;20035;-85
2021/06/01 09:51:12;;;;;;;4.47;2.65;;;;;;;22.61;31.37;96337.28;5072631;28;20020;-84
2021/06/01 09:53:38;;;;;;;5.00;2.58;;;;;;;23.93;29.44;96338.44;5063626;28;20028;-84
2021/06/01 09:56:04;;;;;;;4.75;2.13;;;;;;;25.12;27.24;96326.66;5056121;28;20027;-84
2021/06/01 09:58:34;;;;;;;3.83;1.73;;;;;;;24.25;27.12;96340.63;5059945;28;20036;-85
2021/06/01 10:01:09;;;;;;;2.15;1.67;;;;;;;23.49;27.79;96332.75;5081181;28;20050;-85
2021/06/01 10:03:48;;;;;;;5.63;2.50;;;;;;;21.80;29.79;96331.50;5063347;28;20040;-85
2021/06/01 10:06:14;;;;;;;5.90;2.20;;;;;;;23.64;27.58;96335.75;5065773;28;20024;-84
2021/06/01 10:08:49;;;;;;;4.60;2.05;;;;;;;24.38;26.37;96322.28;5076207;28;20025;-85
2021/06/01 10:11:16;;;;;;;4.20;1.60;;;;;;;26.13;24.54;96314.59;5053377;28;20037;-84
2021/06/01 10:14:13;;;;;;;3.90;2.10;;;;;;;25.71;25.67;96296.38;5054042;28;20028;-84
2021/06/01 10:16:39;;;;;;;4.30;2.00;;;;;;;25.27;26.41;96305.31;5075559;28;20114;-84
2021/06/01 10:19:05;;;;;;;4.15;2.22;;;;;;;23.93;27.72;96306.22;5053722;28;20032;-84
2021/06/01 10:21:32;;;;;;;4.97;2.45;;;;;;;24.28;27.40;96311.38;5065776;28;20450;-83
2021/06/01 10:23:57;;;;;;;3.78;2.08;;;;;;;23.96;27.14;96311.09;5062508;28;20039;-85
2021/06/01 10:26:41;;;;;;;4.63;2.15;;;;;;;23.62;28.77;96312.88;5060884;28;20122;-84
2021/06/01 10:29:07;;;;;;;2.70;2.00;;;;;;;22.96;28.51;96313.16;5066126;28;20040;-84
2021/06/01 10:31:33;;;;;;;3.50;1.88;;;;;;;22.36;29.58;96319.53;5079274;28;20016;-85
2021/06/01 10:34:00;;;;;;;3.42;2.08;;;;;;;23.20;29.68;96313.91;5055748;28;20037;-83
2021/06/01 10:51:01;;;;;;;4.03;2.05;;;;;;;23.84;26.79;96302.28;5079993;28;20036;-84
2021/06/01 10:53:38;;;;;;;3.50;1.70;;;;;;;24.32;26.65;96306.34;5060781;28;20027;-84
2021/06/01 10:56:05;;;;;;;4.97;2.33;;;;;;;24.99;25.27;96290.13;5068352;28;20485;-85
2021/06/01 10:58:45;;;;;;;3.45;2.08;;;;;;;25.57;24.66;96299.47;5067676;28;20051;-82
2021/06/01 11:04:18;;;;;;;4.28;1.60;;;;;;;25.59;24.96;96302.72;5092566;28;20032;-83
2021/06/01 11:06:48;;;;;;;3.88;1.67;;;;;;;23.98;26.58;96304.44;5050323;28;20094;-82
2021/06/01 11:09:32;;;;;;;4.15;2.13;;;;;;;25.36;24.63;96286.84;5059525;28;20035;-82
2021/06/01 11:12:26;;;;;;;5.38;1.98;;;;;;;25.51;24.32;96284.31;5055853;28;20933;-83
2021/06/01 11:14:57;;;;;;;3.13;1.90;;;;;;;23.27;26.41;96282.44;5081129;28;20028;-82
2021/06/01 11:17:42;;;;;;;3.15;2.08;;;;;;;24.47;25.81;96277.03;5070835;28;20036;-81
2021/06/01 11:20:17;;;;;;;3.33;1.90;;;;;;;23.86;27.46;96284.06;5059886;28;20123;-82
2021/06/01 11:22:55;;;;;;;3.38;2.20;;;;;;;24.00;27.43;96271.94;5070939;28;20612;-82
2021/06/01 11:33:37;;;;;;;4.50;2.50;;;;;;;25.87;25.25;96252.38;5077754;28;20117;-83
2021/06/01 11:36:12;;;;;;;3.20;2.10;;;;;;;26.28;25.25;96260.81;5080274;28;20047;-83
2021/06/01 11:38:52;;;;;;;4.03;2.00;;;;;;;24.10;25.30;96253.31;5061035;28;20036;-83
2021/06/01 11:44:29;;;;;;;4.13;1.95;;;;;;;24.52;26.79;96255.59;5076843;28;20066;-81
2021/06/01 11:47:27;;;;;;;4.72;1.80;;;;;;;24.20;26.32;96264.22;5055154;28;20067;-83
2021/06/01 11:52:37;;;;;;;3.67;1.80;;;;;;;24.05;25.40;96250.56;5071138;28;20028;-82
2021/06/01 11:55:05;;;;;;;3.17;1.80;;;;;;;23.77;26.66;96259.47;5077860;28;20470;-83
2021/06/01 11:57:40;;;;;;;3.40;1.85;;;;;;;23.14;27.31;96261.22;5070985;28;20032;-82
2021/06/01 12:03:04;;;;;;;3.35;1.58;;;;;;;23.33;25.66;96248.44;5026973;28;1292881;-83
2021/06/01 12:19:01;;;;;;;2.72;1.75;;;;;;;24.40;24.75;96227.97;5074218;28;20020;-83
2021/06/01 12:21:32;;;;;;;;;;;;;;;24.69;24.58;96220.59;5061174;28;20028;-82
2021/06/01 12:24:03;;;;;;;3.67;1.83;;;;;;;24.23;24.92;96225.28;5075622;28;19954;-83
2021/06/01 12:32:21;;;;;;;3.40;1.60;;;;;;;24.77;24.21;96208.59;5069854;28;20066;-82
2021/06/01 12:43:36;;;;;;;4.65;1.83;;;;;;;24.09;26.06;96197.16;5102085;28;20032;-83
2021/06/01 12:46:16;;;;;;;4.07;1.52;;;;;;;24.27;24.71;96204.94;5052384;28;20032;-82
2021/06/01 13:31:53;;;;;;;2.08;1.40;;;;;;;24.18;25.19;96168.81;5085984;28;20034;-82
2021/06/01 13:46:21;;;;;;;4.90;1.63;;;;;;;23.08;26.66;96160.25;5075436;28;20594;-82
2021/06/01 13:49:00;;;;;;;2.70;1.40;;;;;;;24.16;25.28;96144.03;5082253;28;20032;-83
2021/06/01 13:56:36;;;;;;;4.22;1.65;;;;;;;23.50;26.33;96147.28;5080672;28;20031;-85
2021/06/01 13:59:10;;;;;;;1.70;1.40;;;;;;;22.55;27.16;96146.06;5062727;28;20097;-85
2021/06/01 14:10:12;;;;;;;2.70;1.55;;;;;;;23.81;24.10;96150.53;5082636;28;20512;-85
2021/06/01 14:19:26;;;;;;;2.50;1.65;;;;;;;23.52;25.63;96144.38;5075247;28;20032;-85
2021/06/01 14:21:13;;;;;;;2.33;1.55;;;;;;;23.73;25.41;96141.00;5075657;28;20032;-85
2021/06/01 14:37:42;;;;;;;3.25;1.60;;;;;;;22.67;25.00;96143.34;5068930;28;20043;-83
2021/06/01 17:37:02;;;;;;;6.43;1.83;;;;;;;20.46;31.72;96050.03;5077252;28;20036;-83
2021/06/01 17:39:28;;;;;;;4.30;2.00;;;;;;;20.24;32.21;96052.34;5068357;28;20119;-84
2021/06/01 17:41:57;;;;;;;3.50;1.48;;;;;;;20.15;31.97;96056.34;5074232;28;20050;-84
2021/06/01 17:44:25;;;;;;;3.58;1.65;;;;;;;20.30;31.61;96053.31;5071513;28;20028;-83
2021/06/01 17:47:02;;;;;;;2.83;1.67;;;;;;;20.14;30.04;96060.06;5061705;28;20036;-84
2021/06/01 17:49:30;;;;;;;2.63;1.30;;;;;;;20.04;30.24;96059.78;5062109;28;20472;-83
2021/06/01 17:52:01;;;;;;;2.58;1.40;;;;;;;20.07;30.64;96054.81;5059162;28;20024;-83
2021/06/01 17:54:33;;;;;;;2.60;1.30;;;;;;;20.03;30.35;96056.31;5084432;28;20054;-83
2021/06/01 17:57:03;;;;;;;3.65;1.48;;;;;;;19.99;30.94;96047.94;5073206;28;20036;-83
2021/06/01 17:59:29;;;;;;;3.25;1.38;;;;;;;19.91;32.14;96050.06;5062266;28;20035;-83
2021/06/01 18:01:56;;;;;;;3.53;1.48;;;;;;;19.82;31.48;96049.56;5085121;28;20024;-84
2021/06/01 18:04:27;;;;;;;3.65;1.77;;;;;;;19.81;32.02;96047.09;5095551;28;20043;-83
2021/06/01 18:07:02;;;;;;;3.58;1.50;;;;;;;19.76;32.75;96053.91;5079190;28;20142;-83
2021/06/01 19:51:59;;;;;;;5.03;2.90;;;;;;;16.92;41.54;96086.84;5032118;28;20045;-84
2021/06/01 19:54:29;;;;;;;6.80;2.10;;;;;;;16.80;40.79;96090.28;5065805;28;20028;-84
2021/06/01 19:56:55;;;;;;;3.67;2.03;;;;;;;16.77;40.96;96085.38;5066517;28;20089;-84
2021/06/01 19:59:36;;;;;;;3.30;1.80;;;;;;;16.62;41.20;96094.31;5083753;28;20028;-84
2021/06/01 20:02:02;;;;;;;5.18;1.85;;;;;;;16.51;41.77;96092.25;5074167;28;20646;-84
2021/06/01 20:04:29;;;;;;;4.40;1.83;;;;;;;16.46;42.05;96092.00;5057586;28;20013;-84
2021/06/01 20:06:55;;;;;;;5.03;1.83;;;;;;;16.28;42.51;96089.91;5082418;28;20036;-84
2021/06/01 20:09:24;;;;;;;4.07;1.67;;;;;;;16.22;42.75;96094.19;5082657;28;20049;-85
2021/06/01 20:11:50;;;;;;;3.90;1.63;;;;;;;16.18;43.09;96102.75;5062371;28;20036;-85
2021/06/01 20:14:41;;;;;;;3.73;1.80;;;;;;;16.17;43.38;96101.13;5069075;28;20024;-84
2021/06/01 20:17:32;;;;;;;2.87;1.60;;;;;;;16.16;42.94;96095.00;5060788;28;20033;-85
2021/06/01 20:20:19;;;;;;;7.07;2.20;;;;;;;16.05;43.53;96098.19;5064693;28;20039;-85
2021/06/01 20:22:54;;;;;;;5.07;1.77;;;;;;;16.04;43.21;96096.56;5093124;28;20031;-85
2021/06/01 20:25:21;;;;;;;4.57;2.20;;;;;;;16.03;42.97;96100.22;5082863;28;20031;-85
2021/06/01 20:27:52;;;;;;;3.80;2.13;;;;;;;15.99;43.12;96098.97;5070057;28;20627;-85
2021/06/01 20:30:35;;;;;;;4.80;2.07;;;;;;;15.85;44.40;96100.72;5058262;28;20627;-85
2021/06/01 20:33:19;;;;;;;3.33;1.90;;;;;;;15.79;44.75;96099.69;5060500;28;20036;-85
2021/06/01 20:35:51;;;;;;;4.57;2.37;;;;;;;15.73;44.63;96100.47;5073472;28;20032;-85
2021/06/01 20:38:19;;;;;;;4.80;2.03;;;;;;;15.67;44.58;96097.78;5091396;28;20044;-85
2021/06/01 20:40:48;;;;;;;4.83;2.47;;;;;;;15.66;44.86;96104.91;5067291;28;20055;-85
2021/06/01 20:43:13;;;;;;;4.97;2.13;;;;;;;15.51;45.43;96106.81;5068794;28;20036;-85
2021/06/01 20:45:42;;;;;;;4.80;2.10;;;;;;;15.43;44.78;96101.66;5062573;28;20072;-85
2021/06/01 20:48:14;;;;;;;5.73;2.10;;;;;;;15.40;45.43;96096.75;5073731;28;20051;-85
2021/06/01 20:50:43;;;;;;;2.80;1.50;;;;;;;15.39;44.65;96097.72;5089603;28;20039;-85
2021/06/01 20:53:10;;;;;;;4.17;1.83;;;;;;;15.33;44.84;96100.16;5076529;28;20031;-85
2021/06/01 20:55:37;;;;;;;3.87;1.50;;;;;;;15.36;44.31;96095.47;5060771;28;20036;-85
2021/06/01 20:58:12;;;;;;;4.70;2.00;;;;;;;15.29;44.77;96093.63;5081703;28;20051;-84
2021/06/01 21:00:42;;;;;;;4.40;2.27;;;;;;;15.24;45.82;96096.00;5067224;28;20107;-85
2021/06/01 21:03:09;;;;;;;4.60;2.27;;;;;;;15.17;45.64;96103.09;5083258;28;20043;-85
2021/06/01 21:05:37;;;;;;;5.07;2.43;;;;;;;15.15;45.49;96102.44;5067192;28;20028;-85
2021/06/01 21:08:07;;;;;;;8.90;2.57;;;;;;;15.08;46.31;96097.09;5064494;28;20040;-85
2021/06/01 21:10:35;;;;;;;4.53;2.33;;;;;;;14.97;46.80;96097.59;5082537;28;20028;-85
2021/06/01 21:13:01;;;;;;;6.40;2.80;;;;;;;14.82;47.23;96096.84;5081607;28;20053;-85
2021/06/01 21:15:27;;;;;;;6.67;3.33;;;;;;;14.80;47.13;96098.88;5055515;28;20037;-85
2021/06/01 21:17:53;;;;;;;5.37;2.63;;;;;;;14.73;47.27;96098.81;5090780;28;20051;-85
2021/06/01 21:20:22;;;;;;;8.07;2.80;;;;;;;14.67;47.65;96104.03;5073489;28;20039;-85
2021/06/01 21:22:50;;;;;;;5.13;2.70;;;;;;;14.68;47.38;96106.47;5063958;28;20088;-85
2021/06/01 21:25:21;;;;;;;5.67;2.60;;;;;;;14.57;48.73;96105.16;5067492;28;20059;-85
2021/06/01 21:27:50;;;;;;;4.90;2.83;;;;;;;14.51;49.41;96107.72;5076533;28;20534;-85
2021/06/01 21:30:21;;;;;;;7.43;3.47;;;;;;;14.47;49.08;96114.38;5068032;28;20477;-84
2021/06/01 21:33:02;;;;;;;4.80;2.40;;;;;;;14.36;49.81;96113.84;5081555;28;20073;-84
2021/06/01 21:35:30;;;;;;;6.13;2.40;;;;;;;14.26;49.71;96113.31;5061051;28;20558;-85
2021/06/01 21:38:01;;;;;;;4.77;2.80;;;;;;;14.19;50.43;96116.91;5094696;28;20028;-85
2021/06/01 21:40:30;;;;;;;6.00;2.73;;;;;;;14.18;50.13;96115.22;5055946;28;20040;-85
2021/06/01 21:42:56;;;;;;;22.83;16.10;;;;;;;14.06;51.00;96117.53;5077888;28;21019;-85
2021/06/01 21:45:25;;;;;;;11.93;6.77;;;;;;;14.04;51.24;96117.72;5077427;28;20039;-84
2021/06/01 21:47:54;;;;;;;12.27;7.83;;;;;;;13.95;51.13;96116.19;5085380;28;20035;-85
2021/06/01 21:50:30;;;;;;;13.60;5.70;;;;;;;13.92;51.13;96116.56;5058871;28;20450;-85
2021/06/01 21:52:59;;;;;;;5.53;3.13;;;;;;;13.86;50.88;96114.63;5055584;28;20635;-85
2021/06/01 21:55:30;;;;;;;6.87;2.87;;;;;;;13.74;51.24;96118.72;5058299;28;20025;-84
2021/06/01 21:57:57;;;;;;;5.07;2.73;;;;;;;13.71;51.24;96109.31;5056657;28;20564;-85
2021/06/01 22:00:28;;;;;;;5.00;2.60;;;;;;;13.66;52.22;96109.88;5071759;28;20030;-85
2021/06/01 22:02:55;;;;;;;6.57;2.20;;;;;;;13.62;51.74;96115.72;5088664;28;20092;-85
2021/06/01 22:05:21;;;;;;;5.03;2.23;;;;;;;13.61;51.45;96111.41;5071899;28;20026;-84
2021/06/01 22:07:48;;;;;;;4.00;2.33;;;;;;;13.56;52.40;96111.16;5078590;28;20039;-85
2021/06/01 22:10:15;;;;;;;6.47;2.87;;;;;;;13.41;53.10;96119.88;5080064;28;20035;-85
2021/06/01 22:12:49;;;;;;;9.20;2.80;;;;;;;13.39;53.03;96126.34;5083641;28;20043;-85
2021/06/01 22:15:37;;;;;;;7.10;2.37;;;;;;;13.29;53.69;96121.31;5063124;28;20024;-85
2021/06/01 22:18:07;;;;;;;5.33;2.33;;;;;;;13.29;53.52;96121.31;5084667;28;20500;-85
2021/06/01 22:20:35;;;;;;;4.63;2.27;;;;;;;13.24;52.91;96118.38;5057605;28;20032;-85
2021/06/01 22:23:02;;;;;;;4.93;2.30;;;;;;;13.28;53.00;96124.97;5070094;28;20032;-85
2021/06/01 22:25:29;;;;;;;4.70;2.63;;;;;;;13.27;52.83;96127.75;5071444;28;20028;-85
2021/06/01 22:27:56;;;;;;;4.27;2.47;;;;;;;13.14;53.14;96131.78;5069317;28;20112;-85
2021/06/01 22:30:22;;;;;;;4.73;2.03;;;;;;;13.13;53.54;96124.06;5076722;28;20032;-84
2021/06/01 22:32:49;;;;;;;4.47;2.37;;;;;;;13.09;53.71;96126.22;5065822;28;20104;-85
2021/06/01 22:35:16;;;;;;;4.60;2.43;;;;;;;13.02;54.10;96132.41;5061585;28;20119;-85
2021/06/01 22:37:42;;;;;;;5.40;2.33;;;;;;;13.05;53.71;96124.13;5067212;28;20036;-85
2021/06/01 22:40:10;;;;;;;6.40;2.80;;;;;;;13.05;53.74;96124.94;5095347;28;20032;-84
2021/06/01 22:42:38;;;;;;;4.23;2.00;;;;;;;13.04;54.31;96122.47;5078032;28;20032;-85
2021/06/01 22:45:05;;;;;;;4.57;2.47;;;;;;;12.97;54.56;96123.16;5057936;28;20032;-85
2021/06/01 22:47:34;;;;;;;4.63;2.53;;;;;;;12.92;55.02;96117.63;5063164;28;20039;-85
2021/06/01 22:50:00;;;;;;;5.87;3.13;;;;;;;12.91;55.06;96121.25;5054924;28;20030;-85
2021/06/01 22:52:30;;;;;;;5.73;2.83;;;;;;;12.83;55.47;96120.47;5066985;28;20661;-85
2021/06/01 22:54:59;;;;;;;4.60;2.50;;;;;;;12.74;55.63;96120.56;5053369;28;20056;-85
2021/06/01 22:57:25;;;;;;;5.33;2.47;;;;;;;12.73;55.48;96120.72;5081296;28;20032;-84
2021/06/01 23:00:01;;;;;;;6.63;2.57;;;;;;;12.71;55.53;96123.53;5070942;28;20516;-85
2021/06/01 23:02:30;;;;;;;5.53;2.30;;;;;;;12.70;55.63;96121.88;5074492;28;20263;-85
2021/06/01 23:05:03;;;;;;;4.30;2.40;;;;;;;12.61;56.53;96122.09;5060627;28;20106;-85
2021/06/01 23:07:30;;;;;;;3.92;2.28;;;;;;;12.49;57.19;96124.34;5062579;28;20036;-85
2021/06/01 23:09:57;;;;;;;5.73;2.30;;;;;;;12.41;57.16;96127.84;5110835;28;20023;-85
2021/06/01 23:12:24;;;;;;;5.00;2.73;;;;;;;12.41;57.40;96117.28;5082346;28;20448;-85
2021/06/01 23:15:00;;;;;;;8.70;2.67;;;;;;;12.39;57.43;96121.09;5080349;28;20533;-85
2021/06/01 23:17:31;;;;;;;8.63;3.00;;;;;;;12.33;57.59;96119.13;5084089;28;20035;-85
2021/06/01 23:19:57;;;;;;;6.53;2.67;;;;;;;12.31;57.80;96111.41;5081616;28;20401;-85